This is the latest recevied weather packets stored in our database for station/object N1YZ. If no packets are shown the sender has not sent any weather packets the latest 10 day(s).
| Time | Temp. | Humidity | Pressure | Rain* | Wind** | Luminosity | Snow |
|---|---|---|---|---|---|---|---|
| 1777240783 | 26.11° C | 66% | 1031.1 hPa | 0 mm | - | 67 W/m² | - |
| 1777240481 | 26.11° C | 65% | 1031.2 hPa | 0 mm | - | 87 W/m² | - |
| 1777240178 | 26.67° C | 63% | 1031 hPa | 0 mm | - | 123 W/m² | - |
| 1777239876 | 26.67° C | 60% | 1031.1 hPa | 0 mm | - | 112 W/m² | - |
| 1777239573 | 27.22° C | 61% | 1031.1 hPa | 0 mm | - | 105 W/m² | - |
| 1777239269 | 26.67° C | 61% | 1031.1 hPa | 0 mm | - | 195 W/m² | - |
| 1777238967 | 27.22° C | 61% | 1031.1 hPa | 0 mm | - | 106 W/m² | - |
| 1777238664 | 27.78° C | 58% | 1031.2 hPa | 0 mm | - | 83 W/m² | - |
| 1777238360 | 27.78° C | 57% | 1031.1 hPa | 0 mm | - | 109 W/m² | - |
| 1777238057 | 26.67° C | 63% | 1031.1 hPa | 0 mm | - | 281 W/m² | - |
| 1777237753 | 27.22° C | 64% | 1030.9 hPa | 0 mm | - | 127 W/m² | - |
| 1777237450 | 27.22° C | 58% | 1031 hPa | 0 mm | - | 120 W/m² | - |
| 1777237148 | 26.67° C | 57% | 1030.9 hPa | 0 mm | - | 125 W/m² | - |
| 1777236845 | 27.22° C | 62% | 1031.1 hPa | 0 mm | - | 121 W/m² | - |
| 1777236545 | 27.22° C | 59% | 1031.1 hPa | 0 mm | - | 132 W/m² | - |
| 1777236242 | 27.22° C | 59% | 1031.1 hPa | 0 mm | - | 117 W/m² | - |
| 1777235936 | 27.78° C | 61% | 1031.1 hPa | 0 mm | - | 122 W/m² | - |
| 1777235633 | 26.67° C | 60% | 1031.1 hPa | 0 mm | - | 155 W/m² | - |
| 1777235330 | 26.11° C | 66% | 1031 hPa | 0 mm | - | 179 W/m² | - |
| 1777235027 | 26.11° C | 67% | 1031.2 hPa | 0 mm | - | 157 W/m² | - |
| 1777234723 | 26.67° C | 60% | 1031.2 hPa | 0 mm | - | 160 W/m² | - |
| 1777234419 | 26.11° C | 58% | 1031.4 hPa | 0 mm | - | 126 W/m² | - |
| 1777234114 | 26.11° C | 65% | 1031.2 hPa | 0 mm | - | 147 W/m² | - |
| 1777233811 | 26.67° C | 62% | 1031.5 hPa | 0 mm | - | 166 W/m² | - |
| 1777233507 | 26.67° C | 57% | 1031.4 hPa | 0 mm | - | 149 W/m² | - |
* Rain latest hour (hover to see other rain measurements)
** Current wind speed in m/s (hover to see current wind gust speed)